Time;durP1;ratioP1;P1;durP2;ratioP2;P2;SDS_P1;SDS_P2;PMS_P1;PMS_P2;Temp;Humidity;BMP_temperature;BMP_pressure;BME280_temperature;BME280_humidity;BME280_pressure;Samples;Min_cycle;Max_cycle;Signal;HPM_P1;HPM_P2
2022/09/01 00:00:37;;;;;;;8.52;2.65;;;18.20;99.90;;;;;;5025615;28;20182;-85
2022/09/01 00:03:11;;;;;;;8.52;3.00;;;18.20;99.90;;;;;;5033726;28;20232;-86
2022/09/01 00:05:49;;;;;;;8.23;2.67;;;18.20;99.90;;;;;;5040846;28;20201;-86
2022/09/01 00:08:21;;;;;;;7.93;2.60;;;18.10;99.90;;;;;;5035288;28;20575;-84
2022/09/01 00:10:52;;;;;;;7.45;2.35;;;18.10;99.90;;;;;;5033233;28;20225;-86
2022/09/01 00:13:23;;;;;;;8.95;2.80;;;18.10;99.90;;;;;;5034273;28;20280;-86
2022/09/01 00:15:54;;;;;;;11.63;3.33;;;18.20;99.90;;;;;;5032904;28;20237;-86
2022/09/01 00:18:25;;;;;;;6.60;2.50;;;18.30;99.90;;;;;;5033819;28;20683;-86
2022/09/01 00:20:58;;;;;;;7.78;2.67;;;18.30;99.90;;;;;;5032792;28;20200;-86
2022/09/01 00:23:29;;;;;;;8.48;2.47;;;18.30;99.90;;;;;;5033195;28;20205;-86
2022/09/01 00:26:00;;;;;;;8.52;2.85;;;18.30;99.90;;;;;;5033276;28;20312;-86
2022/09/01 00:28:31;;;;;;;9.63;2.65;;;18.40;99.90;;;;;;5033535;28;20227;-86
2022/09/01 00:31:01;;;;;;;5.90;2.20;;;18.50;99.90;;;;;;5031982;28;20227;-86
2022/09/01 00:33:33;;;;;;;9.57;2.10;;;18.70;99.90;;;;;;5032932;28;20221;-86
2022/09/01 00:36:07;;;;;;;9.52;2.53;;;18.90;99.90;;;;;;5040701;28;20304;-85
2022/09/01 00:38:41;;;;;;;7.90;2.83;;;19.20;99.90;;;;;;5046702;28;20192;-83
2022/09/01 00:41:14;;;;;;;5.88;1.90;;;19.30;99.90;;;;;;5045983;28;20221;-84
2022/09/01 00:43:48;;;;;;;6.45;2.17;;;19.30;99.90;;;;;;5043750;28;20245;-85
2022/09/01 00:46:22;;;;;;;7.65;2.55;;;19.30;99.90;;;;;;5044107;28;20271;-86
2022/09/01 00:48:58;;;;;;;6.28;2.20;;;19.30;99.90;;;;;;5042067;28;20243;-87
2022/09/01 00:51:40;;;;;;;7.70;2.88;;;19.40;99.90;;;;;;5043203;28;20225;-87
2022/09/01 00:54:18;;;;;;;9.50;2.15;;;19.60;99.90;;;;;;5043359;28;20205;-85
2022/09/01 00:56:51;;;;;;;9.25;2.20;;;19.60;99.90;;;;;;5038465;28;20264;-86
2022/09/01 00:59:25;;;;;;;8.02;2.20;;;19.80;99.90;;;;;;5033963;28;20224;-85
2022/09/01 01:01:56;;;;;;;11.23;2.30;;;19.90;99.90;;;;;;5028061;28;20190;-84
2022/09/01 01:04:30;;;;;;;6.45;2.10;;;20.00;99.90;;;;;;5026030;28;20733;-85
2022/09/01 01:07:09;;;;;;;6.60;2.30;;;20.10;99.90;;;;;;5040023;28;20299;-84
2022/09/01 01:09:45;;;;;;;10.25;2.22;;;20.20;99.90;;;;;;5045938;28;20645;-85
2022/09/01 01:12:19;;;;;;;7.90;2.00;;;20.40;99.90;;;;;;5049519;28;20224;-86
2022/09/01 01:14:53;;;;;;;11.15;2.72;;;20.60;99.90;;;;;;5048470;28;20244;-85
2022/09/01 01:17:25;;;;;;;7.68;2.47;;;20.50;99.90;;;;;;5046488;28;20212;-84
2022/09/01 01:23:08;;;;;;;8.27;1.98;;;20.30;99.90;;;;;;5046306;28;20687;-85
2022/09/01 01:25:47;;;;;;;8.65;2.35;;;20.00;99.90;;;;;;5026570;28;20209;-85
2022/09/01 01:28:25;;;;;;;8.43;2.60;;;19.90;99.90;;;;;;5026992;28;20189;-85
2022/09/01 01:31:00;;;;;;;7.00;2.20;;;20.00;99.90;;;;;;5026833;28;20225;-86
2022/09/01 01:33:39;;;;;;;7.30;2.40;;;20.20;99.90;;;;;;5040687;28;20193;-85
2022/09/01 01:36:15;;;;;;;7.03;2.17;;;20.40;99.90;;;;;;5046763;28;20239;-85
2022/09/01 01:38:48;;;;;;;5.70;1.80;;;20.40;99.90;;;;;;5046282;28;20543;-86
2022/09/01 01:41:24;;;;;;;8.90;1.92;;;20.30;99.90;;;;;;5045500;28;20197;-87
2022/09/01 01:43:56;;;;;;;5.38;2.00;;;20.30;99.90;;;;;;5051886;28;20249;-84
2022/09/01 01:46:29;;;;;;;10.70;1.92;;;20.20;99.90;;;;;;5049907;28;20207;-87
2022/09/01 01:49:04;;;;;;;5.50;1.65;;;20.10;99.90;;;;;;5029009;28;20235;-87
2022/09/01 01:51:38;;;;;;;9.40;2.13;;;19.90;99.90;;;;;;5047530;28;20263;-85
2022/09/01 01:54:11;;;;;;;7.93;1.83;;;19.90;99.90;;;;;;5049057;28;20292;-86
2022/09/01 01:56:46;;;;;;;5.50;1.58;;;19.80;99.90;;;;;;5050052;28;20225;-86
2022/09/01 01:59:23;;;;;;;8.38;1.60;;;19.80;99.90;;;;;;5047081;28;20219;-85
2022/09/01 02:01:55;;;;;;;5.80;1.42;;;19.80;99.90;;;;;;5031521;28;20206;-85
2022/09/01 02:04:33;;;;;;;6.35;1.70;;;19.90;99.90;;;;;;5032350;28;20309;-86
2022/09/01 02:07:05;;;;;;;6.57;1.80;;;20.10;99.90;;;;;;5023292;28;20814;-86
2022/09/01 02:09:38;;;;;;;6.00;1.30;;;20.10;99.90;;;;;;5014870;28;20186;-86
2022/09/01 02:12:11;;;;;;;10.50;1.95;;;20.20;99.90;;;;;;5012480;28;20276;-85
2022/09/01 02:14:42;;;;;;;8.23;2.17;;;20.20;99.90;;;;;;5033052;28;20233;-89
2022/09/01 02:17:14;;;;;;;8.82;1.80;;;20.30;99.90;;;;;;5039101;28;20209;-88
2022/09/01 02:19:46;;;;;;;6.13;1.50;;;20.50;99.90;;;;;;5039671;28;20221;-93
2022/09/01 02:22:20;;;;;;;7.47;1.92;;;20.70;99.90;;;;;;5038299;28;20209;-90
2022/09/01 02:24:52;;;;;;;9.48;2.10;;;20.90;99.90;;;;;;5040030;28;20193;-91
2022/09/01 02:27:28;;;;;;;5.50;1.70;;;20.90;99.90;;;;;;5019832;28;20248;-90
2022/09/01 02:30:03;;;;;;;7.60;1.63;;;20.80;99.90;;;;;;5038394;28;20200;-90
2022/09/01 02:32:35;;;;;;;8.25;2.00;;;20.70;99.90;;;;;;5038420;28;20228;-90
2022/09/01 02:35:08;;;;;;;4.78;1.48;;;20.80;99.90;;;;;;5037222;28;20193;-90
2022/09/01 02:37:42;;;;;;;8.10;1.60;;;21.00;99.90;;;;;;5037278;28;20235;-93
2022/09/01 02:40:14;;;;;;;5.20;1.60;;;21.00;99.90;;;;;;5037556;28;20205;-88
2022/09/01 02:42:51;;;;;;;6.18;1.65;;;21.00;99.90;;;;;;5037773;28;20573;-86
2022/09/01 02:45:23;;;;;;;6.78;2.10;;;21.00;99.90;;;;;;5036492;28;20216;-87
2022/09/01 02:47:56;;;;;;;11.00;1.88;;;21.10;99.90;;;;;;5035479;28;20203;-88
2022/09/01 02:50:28;;;;;;;7.47;1.70;;;21.10;99.90;;;;;;5048834;28;20224;-87
2022/09/01 02:53:00;;;;;;;5.97;1.73;;;20.90;99.90;;;;;;5040871;28;20545;-88
2022/09/01 02:55:31;;;;;;;9.38;2.15;;;20.90;99.90;;;;;;5036497;28;20347;-92
2022/09/01 02:58:12;;;;;;;8.80;1.80;;;20.70;99.90;;;;;;5037005;28;20201;-89
2022/09/01 03:00:44;;;;;;;11.00;1.98;;;20.70;99.90;;;;;;5017319;28;20308;-92
2022/09/01 03:03:18;;;;;;;7.00;1.80;;;20.80;99.90;;;;;;5016862;28;20720;-91
2022/09/01 03:05:54;;;;;;;5.72;1.63;;;20.80;99.90;;;;;;5036494;28;20207;-87
2022/09/01 03:08:26;;;;;;;9.25;2.20;;;20.70;99.90;;;;;;5041985;28;20248;-93
2022/09/01 03:11:00;;;;;;;6.43;1.88;;;20.60;99.90;;;;;;5040198;28;20231;-93
2022/09/01 03:13:36;;;;;;;7.35;1.88;;;20.50;99.90;;;;;;5040214;28;20224;-92
2022/09/01 03:16:08;;;;;;;9.00;1.95;;;20.40;99.90;;;;;;5025989;28;20247;-93
2022/09/01 03:18:41;;;;;;;14.07;2.30;;;20.30;99.90;;;;;;5054946;28;20245;-91
2022/09/01 03:21:15;;;;;;;11.93;2.30;;;20.20;99.90;;;;;;5050515;28;20265;-93
2022/09/01 03:23:48;;;;;;;12.80;2.33;;;20.10;99.90;;;;;;5042181;28;20197;-93
2022/09/01 03:26:21;;;;;;;8.95;2.35;;;20.10;99.90;;;;;;5039316;28;20201;-92
2022/09/01 03:28:58;;;;;;;7.78;2.25;;;20.10;99.90;;;;;;5040103;28;20209;-91
2022/09/01 03:31:29;;;;;;;8.98;2.17;;;20.10;99.90;;;;;;5019410;28;20229;-93
2022/09/01 03:34:02;;;;;;;15.45;2.55;;;20.30;99.90;;;;;;5019976;28;20212;-92
2022/09/01 03:36:35;;;;;;;10.23;2.47;;;20.60;99.90;;;;;;5000377;28;20252;-94
2022/09/01 03:39:08;;;;;;;8.57;2.10;;;20.60;99.90;;;;;;5027416;28;20267;-92
2022/09/01 03:41:41;;;;;;;8.85;2.42;;;20.50;99.90;;;;;;5039723;28;20212;-93
2022/09/01 03:44:16;;;;;;;11.52;2.30;;;20.70;99.90;;;;;;5021474;28;20189;-89
2022/09/01 03:46:48;;;;;;;8.88;2.15;;;20.70;99.90;;;;;;5035957;28;20663;-87
2022/09/01 03:49:26;;;;;;;8.13;2.40;;;20.90;99.90;;;;;;5037291;28;20562;-89
2022/09/01 03:52:00;;;;;;;6.85;2.10;;;21.00;99.90;;;;;;5036047;28;20294;-88
2022/09/01 03:54:31;;;;;;;10.27;2.42;;;20.90;99.90;;;;;;5032395;28;20205;-89
2022/09/01 03:57:04;;;;;;;9.35;2.35;;;20.90;99.90;;;;;;5040380;28;20226;-87
2022/09/01 03:59:42;;;;;;;8.52;2.38;;;21.10;99.90;;;;;;5011562;28;20210;-87
2022/09/01 04:02:14;;;;;;;9.38;2.42;;;21.20;99.90;;;;;;5018339;28;20292;-90
2022/09/01 04:04:45;;;;;;;9.23;2.08;;;21.10;99.90;;;;;;5000839;28;20206;-89
2022/09/01 04:07:18;;;;;;;9.77;2.20;;;21.00;99.90;;;;;;5021142;28;20203;-89
2022/09/01 04:09:58;;;;;;;7.93;1.90;;;20.90;99.90;;;;;;5026031;28;20192;-90
2022/09/01 04:12:31;;;;;;;9.38;1.92;;;20.90;99.90;;;;;;5013079;28;20312;-88
2022/09/01 04:15:36;;;;;;;7.68;2.10;;;20.80;99.90;;;;;;5045412;28;20217;-87
2022/09/01 04:18:18;;;;;;;9.50;2.00;;;20.80;99.90;;;;;;5019071;28;20197;-87
2022/09/01 04:20:51;;;;;;;10.70;2.10;;;20.70;99.90;;;;;;5049670;28;20184;-86
2022/09/01 04:23:28;;;;;;;7.97;2.10;;;20.70;99.90;;;;;;5055272;28;20289;-87
2022/09/01 04:26:07;;;;;;;10.30;2.22;;;20.70;99.90;;;;;;5043954;28;20189;-86
2022/09/01 04:28:48;;;;;;;8.13;2.10;;;20.70;99.90;;;;;;5042325;28;20225;-88
2022/09/01 04:31:26;;;;;;;9.80;2.25;;;20.60;99.90;;;;;;5026399;28;20225;-91
2022/09/01 04:34:01;;;;;;;19.42;2.70;;;20.60;99.90;;;;;;5043282;28;20292;-89
2022/09/01 04:36:36;;;;;;;13.25;2.13;;;20.60;99.90;;;;;;5047165;28;20201;-89
2022/09/01 04:39:12;;;;;;;9.43;2.33;;;20.60;99.90;;;;;;5050446;28;20205;-89
2022/09/01 04:41:46;;;;;;;7.22;2.08;;;20.60;99.90;;;;;;5049413;28;20212;-90
2022/09/01 04:44:21;;;;;;;8.02;2.00;;;20.70;99.90;;;;;;5046392;28;20257;-90
2022/09/01 04:46:59;;;;;;;9.93;2.67;;;20.60;99.90;;;;;;5039367;28;20209;-90
2022/09/01 04:49:36;;;;;;;11.63;2.50;;;20.60;99.90;;;;;;5039195;28;20214;-89
2022/09/01 04:52:13;;;;;;;8.05;2.17;;;20.70;99.90;;;;;;5038668;28;20227;-91
2022/09/01 04:54:49;;;;;;;10.75;2.15;;;20.80;99.90;;;;;;5022136;28;20201;-89
2022/09/01 04:57:22;;;;;;;8.68;2.10;;;20.80;99.90;;;;;;5039431;28;20667;-90
2022/09/01 04:59:54;;;;;;;9.55;2.30;;;20.70;99.90;;;;;;5037364;28;20292;-88
2022/09/01 05:02:36;;;;;;;9.00;2.15;;;20.60;99.90;;;;;;5045708;28;20247;-88
2022/09/01 05:05:13;;;;;;;10.23;2.50;;;20.50;99.90;;;;;;5040013;28;20274;-88
2022/09/01 05:07:45;;;;;;;10.00;1.98;;;20.50;99.90;;;;;;5039944;28;20207;-87
2022/09/01 05:10:18;;;;;;;7.15;1.80;;;20.60;99.90;;;;;;5047307;28;20194;-88
2022/09/01 05:12:53;;;;;;;7.50;2.00;;;20.60;99.90;;;;;;5030734;28;20229;-89
2022/09/01 05:15:32;;;;;;;11.25;2.28;;;20.60;99.90;;;;;;5045151;28;20347;-90
2022/09/01 05:18:08;;;;;;;9.68;2.08;;;20.60;99.90;;;;;;5049321;28;20177;-88
2022/09/01 05:21:07;;;;;;;8.52;1.98;;;20.60;99.90;;;;;;5031044;28;20581;-89
2022/09/01 05:23:39;;;;;;;10.98;2.03;;;20.60;99.90;;;;;;5045413;28;20209;-89
2022/09/01 05:26:16;;;;;;;7.10;1.80;;;20.50;99.90;;;;;;5048231;28;20197;-89
2022/09/01 05:29:09;;;;;;;10.65;2.20;;;20.50;99.90;;;;;;5031085;28;20185;-87
2022/09/01 05:31:43;;;;;;;6.38;1.73;;;20.40;99.90;;;;;;5030876;28;20288;-88
2022/09/01 05:34:36;;;;;;;9.07;1.80;;;20.30;99.90;;;;;;5034923;28;20242;-88
2022/09/01 05:37:12;;;;;;;9.23;2.05;;;20.20;99.90;;;;;;5047372;28;20204;-89
2022/09/01 05:39:45;;;;;;;5.90;1.83;;;20.30;99.90;;;;;;5046513;28;20208;-91
2022/09/01 05:42:25;;;;;;;9.25;1.90;;;20.40;99.90;;;;;;5047870;28;20667;-89
2022/09/01 05:45:00;;;;;;;6.65;1.73;;;20.60;99.90;;;;;;5047287;28;20189;-87
2022/09/01 05:47:36;;;;;;;8.27;1.73;;;20.70;99.90;;;;;;5046318;28;20213;-88
2022/09/01 05:50:09;;;;;;;8.15;1.90;;;20.70;99.90;;;;;;5041043;28;20252;-90
2022/09/01 05:52:47;;;;;;;7.00;1.60;;;20.60;99.90;;;;;;5028204;28;20222;-89
2022/09/01 05:55:21;;;;;;;7.82;2.15;;;20.60;99.90;;;;;;5041079;28;20203;-88
2022/09/01 05:57:55;;;;;;;6.50;1.83;;;20.70;99.90;;;;;;5051062;28;20216;-89
2022/09/01 06:00:33;;;;;;;7.80;1.90;;;20.70;99.90;;;;;;5050119;28;20200;-88
2022/09/01 06:03:09;;;;;;;10.75;2.05;;;20.80;99.90;;;;;;5042318;28;20208;-89
2022/09/01 06:05:42;;;;;;;7.95;1.83;;;20.90;99.90;;;;;;5041329;28;20193;-89
2022/09/01 06:08:17;;;;;;;9.27;1.90;;;21.00;99.90;;;;;;5022199;28;20202;-87
2022/09/01 06:10:49;;;;;;;7.10;1.73;;;21.10;99.90;;;;;;5029123;28;20251;-87
2022/09/01 06:13:21;;;;;;;5.53;1.52;;;21.10;99.90;;;;;;5036946;28;20241;-88
2022/09/01 06:15:57;;;;;;;5.60;1.70;;;21.20;99.90;;;;;;5038836;28;20232;-87
2022/09/01 06:18:27;;;;;;;7.35;1.70;;;21.30;99.90;;;;;;5039034;28;20205;-88
2022/09/01 06:20:59;;;;;;;9.43;1.70;;;21.20;99.90;;;;;;5040260;28;20201;-89
2022/09/01 06:23:36;;;;;;;10.20;2.17;;;21.20;99.90;;;;;;5030569;28;20677;-88
2022/09/01 06:26:08;;;;;;;9.32;1.70;;;21.20;99.90;;;;;;5031630;28;20634;-88
2022/09/01 06:28:40;;;;;;;7.47;1.73;;;21.10;99.90;;;;;;5047834;28;20236;-87
2022/09/01 06:31:14;;;;;;;7.63;1.77;;;21.00;99.90;;;;;;5044051;28;20209;-88
2022/09/01 06:33:46;;;;;;;10.30;1.98;;;20.90;99.90;;;;;;5051190;28;20273;-88
2022/09/01 06:36:20;;;;;;;8.68;2.10;;;20.60;99.90;;;;;;5049323;28;20221;-88
2022/09/01 06:38:58;;;;;;;7.40;2.13;;;20.50;99.90;;;;;;5058072;28;20188;-90
2022/09/01 06:41:32;;;;;;;10.73;1.90;;;20.30;99.90;;;;;;5056398;28;20193;-88
2022/09/01 06:44:11;;;;;;;7.95;2.15;;;20.30;99.90;;;;;;5047569;28;20226;-89
2022/09/01 06:46:43;;;;;;;8.32;1.48;;;20.30;99.90;;;;;;5044761;28;20201;-89
2022/09/01 06:49:15;;;;;;;11.73;2.00;;;20.30;99.90;;;;;;5044397;28;20201;-89
2022/09/01 06:51:48;;;;;;;10.63;1.83;;;20.30;99.90;;;;;;5043179;28;20540;-90
2022/09/01 06:54:27;;;;;;;9.75;2.33;;;20.30;99.90;;;;;;5028153;28;20231;-86
2022/09/01 06:57:02;;;;;;;5.70;1.77;;;20.20;99.90;;;;;;5034609;28;20566;-87
2022/09/01 06:59:36;;;;;;;8.88;2.15;;;20.10;99.90;;;;;;5026546;28;20237;-90
2022/09/01 07:02:09;;;;;;;7.53;1.80;;;20.10;99.90;;;;;;5036056;28;20217;-88
2022/09/01 07:04:44;;;;;;;7.65;1.90;;;20.00;99.90;;;;;;5044217;28;20205;-89
2022/09/01 07:07:18;;;;;;;7.97;1.92;;;19.90;99.90;;;;;;5045039;28;20625;-88
2022/09/01 07:09:53;;;;;;;7.97;1.98;;;19.90;99.90;;;;;;5044164;28;20189;-88
2022/09/01 07:12:25;;;;;;;10.70;1.85;;;19.70;99.90;;;;;;5047798;28;20227;-88
2022/09/01 07:14:58;;;;;;;11.15;2.22;;;19.70;99.90;;;;;;5045110;28;20236;-89
2022/09/01 07:17:30;;;;;;;10.48;2.20;;;19.60;99.90;;;;;;5053632;28;20265;-88
2022/09/01 07:20:02;;;;;;;7.60;1.90;;;19.50;99.90;;;;;;5044542;28;20247;-89
2022/09/01 07:22:39;;;;;;;8.18;1.65;;;19.40;99.90;;;;;;5026379;28;20244;-87
2022/09/01 07:25:23;;;;;;;8.05;1.48;;;19.40;99.90;;;;;;5051688;28;20207;-86
2022/09/01 07:27:59;;;;;;;6.55;1.90;;;19.40;99.90;;;;;;5046625;28;20197;-87
2022/09/01 07:30:30;;;;;;;7.30;1.70;;;19.30;99.90;;;;;;5039066;28;20208;-86
2022/09/01 07:33:02;;;;;;;9.40;1.92;;;19.30;99.90;;;;;;5027792;28;20221;-86
2022/09/01 07:35:36;;;;;;;10.25;2.20;;;19.20;99.90;;;;;;5031217;28;20280;-88
2022/09/01 07:38:12;;;;;;;9.52;1.98;;;19.20;99.90;;;;;;5045792;28;20213;-90
2022/09/01 07:40:48;;;;;;;9.23;2.28;;;19.10;99.90;;;;;;5044366;28;20209;-87
2022/09/01 07:43:24;;;;;;;9.90;2.63;;;19.00;99.90;;;;;;5044190;28;20680;-90
2022/09/01 07:45:58;;;;;;;8.32;2.25;;;18.90;99.90;;;;;;5040007;28;20197;-89
2022/09/01 07:48:31;;;;;;;10.68;2.55;;;18.80;99.90;;;;;;5043699;28;20207;-88
2022/09/01 07:51:02;;;;;;;7.78;2.03;;;18.90;99.90;;;;;;5043897;28;20768;-87
2022/09/01 07:53:38;;;;;;;11.77;2.25;;;18.80;99.90;;;;;;5024859;28;20361;-87
2022/09/01 07:56:17;;;;;;;9.52;2.20;;;18.80;99.90;;;;;;5026049;28;20300;-87
2022/09/01 07:58:50;;;;;;;9.93;2.00;;;18.80;99.90;;;;;;5042560;28;20192;-90
2022/09/01 08:01:24;;;;;;;10.73;2.00;;;18.80;99.90;;;;;;5043398;28;20201;-89
2022/09/01 08:03:57;;;;;;;8.32;1.95;;;18.80;99.90;;;;;;5038133;28;20272;-88
2022/09/01 08:06:29;;;;;;;9.07;2.22;;;18.70;99.90;;;;;;5041868;28;20245;-87
2022/09/01 08:09:04;;;;;;;9.98;2.60;;;18.70;99.90;;;;;;5042294;28;20257;-87
2022/09/01 08:11:39;;;;;;;9.35;2.85;;;18.70;99.90;;;;;;5015521;28;20205;-88
2022/09/01 08:14:11;;;;;;;10.32;2.45;;;18.70;99.90;;;;;;5023377;28;20217;-92
2022/09/01 08:16:42;;;;;;;9.18;2.40;;;18.70;99.90;;;;;;5020830;28;20226;-90
2022/09/01 08:19:17;;;;;;;11.00;2.20;;;18.60;99.90;;;;;;5017928;28;20198;-90
2022/09/01 08:21:49;;;;;;;10.57;2.55;;;18.70;99.90;;;;;;5017594;28;20224;-87
2022/09/01 08:24:20;;;;;;;9.25;2.38;;;18.60;99.90;;;;;;5029928;28;20304;-88
2022/09/01 08:26:54;;;;;;;7.15;2.00;;;18.50;99.90;;;;;;5036221;28;20221;-87
2022/09/01 08:29:25;;;;;;;12.73;2.58;;;18.60;99.90;;;;;;5034299;28;20193;-86
2022/09/01 08:31:57;;;;;;;12.13;2.60;;;18.60;99.90;;;;;;5033343;28;20213;-86
2022/09/01 08:34:31;;;;;;;7.50;2.00;;;18.50;99.90;;;;;;5032923;28;20205;-85
2022/09/01 08:37:02;;;;;;;9.80;1.77;;;18.50;99.90;;;;;;5012864;28;20198;-84
2022/09/01 08:39:33;;;;;;;14.52;2.83;;;18.50;99.90;;;;;;5013835;28;20201;-85
2022/09/01 08:42:15;;;;;;;14.25;2.08;;;18.50;99.90;;;;;;5015647;28;20631;-83
2022/09/01 08:44:54;;;;;;;10.57;2.30;;;18.50;99.90;;;;;;5018867;28;20201;-84
2022/09/01 08:47:25;;;;;;;9.52;2.25;;;18.40;99.90;;;;;;5034632;28;20216;-82
2022/09/01 08:49:56;;;;;;;9.40;1.98;;;18.40;99.90;;;;;;5031877;28;20205;-83
2022/09/01 08:52:33;;;;;;;10.55;2.53;;;18.40;99.90;;;;;;5032092;28;20267;-83
2022/09/01 08:55:09;;;;;;;10.27;2.00;;;18.30;99.90;;;;;;5038163;28;20200;-83
2022/09/01 08:57:43;;;;;;;10.63;2.20;;;18.30;99.90;;;;;;5041807;28;20197;-81
2022/09/01 09:00:19;;;;;;;10.07;1.95;;;18.30;99.90;;;;;;5032267;28;20227;-82
2022/09/01 09:03:04;;;;;;;8.13;1.98;;;18.30;99.90;;;;;;5031972;28;20209;-83
2022/09/01 09:05:52;;;;;;;8.48;2.25;;;18.30;99.90;;;;;;5031730;28;20293;-82
2022/09/01 09:08:46;;;;;;;12.18;2.85;;;18.30;99.90;;;;;;5011933;28;20328;-84
2022/09/01 09:11:37;;;;;;;10.95;2.20;;;18.40;99.90;;;;;;5012528;28;20189;-82
2022/09/01 09:14:16;;;;;;;11.95;2.22;;;18.30;99.90;;;;;;5011554;28;20316;-83
2022/09/01 09:16:49;;;;;;;9.43;2.22;;;18.30;99.90;;;;;;5011841;28;20224;-82
2022/09/01 09:19:25;;;;;;;8.00;1.88;;;18.30;99.90;;;;;;5020418;28;20209;-83
2022/09/01 09:21:57;;;;;;;7.13;1.95;;;18.40;99.90;;;;;;5032589;28;20201;-83
2022/09/01 09:24:45;;;;;;;9.57;1.83;;;18.30;99.90;;;;;;5011821;28;20272;-84
2022/09/01 09:27:23;;;;;;;9.10;1.90;;;18.40;99.90;;;;;;5012247;28;20264;-82
2022/09/01 09:29:57;;;;;;;12.18;1.95;;;18.30;99.90;;;;;;5015784;28;20221;-82
2022/09/01 09:32:46;;;;;;;10.73;2.17;;;18.40;99.90;;;;;;5012375;28;20229;-82
2022/09/01 09:35:24;;;;;;;8.68;1.77;;;18.30;99.90;;;;;;5011624;28;20205;-83
2022/09/01 09:37:55;;;;;;;12.25;2.10;;;18.30;99.90;;;;;;5011436;28;20572;-82
2022/09/01 09:40:27;;;;;;;14.68;2.60;;;18.40;99.90;;;;;;5025310;28;20201;-82
2022/09/01 09:43:08;;;;;;;10.20;2.25;;;18.40;99.90;;;;;;5031157;28;20199;-82
2022/09/01 09:45:43;;;;;;;8.20;1.88;;;18.40;99.90;;;;;;5030994;28;20201;-83
2022/09/01 09:48:29;;;;;;;9.57;1.90;;;18.40;99.90;;;;;;5031511;28;20200;-82
2022/09/01 09:51:18;;;;;;;10.77;1.90;;;18.40;99.90;;;;;;5031472;28;20193;-84
2022/09/01 09:53:49;;;;;;;11.95;2.08;;;18.40;99.90;;;;;;5030988;28;20691;-83
2022/09/01 09:56:23;;;;;;;10.82;2.55;;;18.40;99.90;;;;;;5030527;28;20600;-83
2022/09/01 09:58:54;;;;;;;10.75;2.25;;;18.50;99.90;;;;;;5031084;28;20198;-83
2022/09/01 10:01:33;;;;;;;11.77;2.20;;;18.50;99.90;;;;;;5012973;28;20232;-82
2022/09/01 10:04:05;;;;;;;8.57;1.90;;;18.50;99.90;;;;;;5011027;28;20215;-83
2022/09/01 10:06:38;;;;;;;12.23;2.10;;;18.50;99.90;;;;;;5010409;28;20256;-81
2022/09/01 10:09:10;;;;;;;9.23;2.22;;;18.40;99.90;;;;;;5008606;28;20323;-81
2022/09/01 10:11:44;;;;;;;8.73;1.83;;;18.40;99.90;;;;;;5010677;28;20730;-82
2022/09/01 10:14:22;;;;;;;9.10;2.13;;;18.40;99.90;;;;;;5012573;28;20236;-82
2022/09/01 10:16:59;;;;;;;11.48;2.15;;;18.40;99.90;;;;;;5012587;28;20267;-82
2022/09/01 10:19:33;;;;;;;10.55;2.17;;;18.30;99.90;;;;;;5014868;28;20570;-81
2022/09/01 10:22:05;;;;;;;8.23;2.03;;;18.30;99.90;;;;;;5012749;28;20195;-81
2022/09/01 10:24:38;;;;;;;10.23;2.08;;;18.30;99.90;;;;;;5010156;28;20681;-83
2022/09/01 10:27:15;;;;;;;10.80;2.35;;;18.30;99.90;;;;;;5011677;28;20231;-82
2022/09/01 10:29:49;;;;;;;11.93;2.63;;;18.30;99.90;;;;;;5008174;28;20275;-82
2022/09/01 10:32:26;;;;;;;10.80;2.20;;;18.30;99.90;;;;;;5008702;28;20578;-84
2022/09/01 10:34:57;;;;;;;10.20;1.90;;;18.30;99.90;;;;;;5020390;28;20266;-82
2022/09/01 10:37:29;;;;;;;11.38;2.33;;;18.30;99.90;;;;;;5016158;28;20202;-83
2022/09/01 10:40:20;;;;;;;11.93;2.13;;;18.30;99.90;;;;;;5015453;28;20673;-83
2022/09/01 10:42:53;;;;;;;13.20;2.50;;;18.30;99.90;;;;;;5016755;28;20204;-82
2022/09/01 10:45:34;;;;;;;7.38;2.15;;;18.30;99.90;;;;;;5014130;28;20285;-83
2022/09/01 10:48:31;;;;;;;11.20;2.28;;;18.30;99.90;;;;;;5013767;28;20194;-83
2022/09/01 10:51:44;;;;;;;12.82;2.30;;;18.30;99.90;;;;;;5010627;28;20201;-84
2022/09/01 10:55:02;;;;;;;10.27;2.10;;;18.20;99.90;;;;;;5015062;28;20228;-84
2022/09/01 10:57:51;;;;;;;11.60;2.25;;;18.20;99.90;;;;;;5013215;28;20206;-84
2022/09/01 11:00:57;;;;;;;12.18;2.00;;;18.10;99.90;;;;;;5014988;28;20659;-84
2022/09/01 11:04:02;;;;;;;11.98;2.08;;;18.20;99.90;;;;;;5013028;28;20271;-82
2022/09/01 11:07:03;;;;;;;16.10;2.60;;;18.20;99.90;;;;;;5024557;28;20201;-82
2022/09/01 11:09:40;;;;;;;7.75;1.90;;;18.20;99.90;;;;;;5019719;28;20295;-82
2022/09/01 11:12:38;;;;;;;14.95;2.50;;;18.10;99.90;;;;;;5015505;28;20209;-82
2022/09/01 11:15:27;;;;;;;11.13;2.28;;;18.10;99.90;;;;;;5011136;28;20890;-83
2022/09/01 11:18:00;;;;;;;10.70;2.17;;;18.10;99.90;;;;;;5009903;28;20229;-83
2022/09/01 11:20:35;;;;;;;11.00;2.53;;;18.20;99.90;;;;;;5014906;28;20201;-83
2022/09/01 11:23:09;;;;;;;11.23;2.10;;;18.10;99.90;;;;;;5012335;28;21207;-82
2022/09/01 11:25:47;;;;;;;10.27;1.75;;;18.20;99.90;;;;;;5016249;28;20193;-82
2022/09/01 11:28:41;;;;;;;11.95;2.13;;;18.10;99.90;;;;;;5011593;28;20224;-82
2022/09/01 11:31:30;;;;;;;12.52;2.47;;;18.10;99.90;;;;;;5011104;28;20816;-82
2022/09/01 11:34:17;;;;;;;8.68;1.90;;;18.10;99.90;;;;;;5011224;28;20225;-83
2022/09/01 11:37:02;;;;;;;10.48;2.45;;;18.10;99.90;;;;;;5010570;28;20209;-81
2022/09/01 11:39:41;;;;;;;9.82;2.03;;;18.10;99.90;;;;;;5030787;28;20208;-81
2022/09/01 11:42:21;;;;;;;12.05;2.10;;;18.00;99.90;;;;;;5011843;28;20242;-81
2022/09/01 11:44:56;;;;;;;11.82;2.60;;;18.00;99.90;;;;;;5011345;28;20205;-81
2022/09/01 11:47:32;;;;;;;9.48;1.75;;;18.00;99.90;;;;;;5010156;28;20615;-81
2022/09/01 11:50:06;;;;;;;11.45;2.15;;;18.00;99.90;;;;;;5009357;28;20212;-81
2022/09/01 11:52:41;;;;;;;11.15;2.13;;;18.00;99.90;;;;;;5015007;28;20494;-82
2022/09/01 11:55:12;;;;;;;9.88;2.28;;;18.00;99.90;;;;;;5010306;28;20729;-83
2022/09/01 11:57:43;;;;;;;7.55;1.80;;;18.00;99.90;;;;;;5013530;28;20296;-82
2022/09/01 12:00:15;;;;;;;9.13;1.98;;;18.00;99.90;;;;;;5016672;28;20284;-83
2022/09/01 12:02:59;;;;;;;11.57;2.33;;;18.00;99.90;;;;;;5019155;28;20197;-83
2022/09/01 12:05:34;;;;;;;8.77;2.03;;;17.90;99.90;;;;;;5015690;28;20210;-84
2022/09/01 12:08:14;;;;;;;9.15;2.00;;;18.00;99.90;;;;;;5015274;28;20299;-86
2022/09/01 12:10:46;;;;;;;14.80;2.30;;;17.90;99.90;;;;;;5031184;28;20200;-85
2022/09/01 12:13:23;;;;;;;12.20;2.15;;;17.90;99.90;;;;;;5032160;28;20217;-84
2022/09/01 12:15:57;;;;;;;14.02;2.47;;;17.90;99.90;;;;;;5032125;28;20315;-85
2022/09/01 12:18:30;;;;;;;7.00;1.70;;;17.90;99.90;;;;;;5032309;28;20255;-85
2022/09/01 12:21:03;;;;;;;9.70;2.15;;;17.90;99.90;;;;;;5032158;28;20193;-84
2022/09/01 12:23:39;;;;;;;9.82;1.73;;;17.90;99.90;;;;;;5025701;28;20264;-85
2022/09/01 12:26:13;;;;;;;7.68;2.10;;;17.90;99.90;;;;;;5020523;28;20730;-84
2022/09/01 12:28:44;;;;;;;7.28;1.73;;;17.90;99.90;;;;;;5032338;28;20200;-85
2022/09/01 12:31:19;;;;;;;7.97;1.95;;;17.90;99.90;;;;;;5034070;28;20221;-88
2022/09/01 12:33:51;;;;;;;8.43;1.90;;;17.90;99.90;;;;;;5034467;28;20220;-91
2022/09/01 12:36:29;;;;;;;12.30;2.15;;;17.80;99.90;;;;;;5034207;28;20185;-90
2022/09/01 12:39:24;;;;;;;7.97;1.80;;;17.80;99.90;;;;;;5034117;28;20205;-89
2022/09/01 12:42:08;;;;;;;8.13;1.65;;;17.80;99.90;;;;;;5022435;28;20204;-89
2022/09/01 12:44:51;;;;;;;7.18;1.83;;;17.90;99.90;;;;;;5045543;28;20215;-90
2022/09/01 12:48:00;;;;;;;6.88;1.85;;;17.80;99.90;;;;;;5037409;28;20193;-91
2022/09/01 12:50:49;;;;;;;7.25;1.70;;;17.80;99.90;;;;;;5019145;28;20288;-91
2022/09/01 12:53:31;;;;;;;9.63;1.95;;;17.70;99.90;;;;;;5030690;28;20198;-91
2022/09/01 12:56:18;;;;;;;9.82;2.00;;;17.80;99.90;;;;;;5018583;28;20198;-87
2022/09/01 12:58:53;;;;;;;8.52;2.10;;;17.70;99.90;;;;;;5030729;28;20207;-90
2022/09/01 13:01:32;;;;;;;6.72;1.88;;;17.70;99.90;;;;;;5033924;28;20209;-91
2022/09/01 13:04:18;;;;;;;6.75;1.63;;;17.70;99.90;;;;;;5026470;28;20566;-91
2022/09/01 13:06:50;;;;;;;6.43;2.03;;;17.70;99.90;;;;;;5028044;28;20280;-92
2022/09/01 13:09:21;;;;;;;8.05;1.90;;;17.70;99.90;;;;;;5033884;28;20198;-90
2022/09/01 13:11:56;;;;;;;9.55;2.13;;;17.70;99.90;;;;;;5034033;28;20201;-91
2022/09/01 13:14:28;;;;;;;8.23;1.90;;;17.60;99.90;;;;;;5025192;28;20589;-89
2022/09/01 13:16:59;;;;;;;8.18;1.98;;;17.60;99.90;;;;;;5022762;28;20344;-89
2022/09/01 13:19:30;;;;;;;8.65;2.33;;;17.60;99.90;;;;;;5030823;28;20186;-89
2022/09/01 13:22:01;;;;;;;8.63;1.73;;;17.60;99.90;;;;;;5002038;28;20201;-90
2022/09/01 13:24:32;;;;;;;8.25;1.73;;;17.60;99.90;;;;;;5035568;28;20220;-92
2022/09/01 13:27:06;;;;;;;9.13;2.03;;;17.60;99.90;;;;;;5036988;28;20190;-91
2022/09/01 13:29:38;;;;;;;10.25;2.20;;;17.50;99.90;;;;;;5049587;28;20195;-88
2022/09/01 13:32:11;;;;;;;7.85;1.90;;;17.50;99.90;;;;;;5045000;28;20319;-91